sensor_id;sensor_type;location;lat;lon;timestamp;P1;durP1;ratioP1;P2;durP2;ratioP2
7193;SDS011;3638;48.820;9.244;2023-04-25T00:01:20;2.87;;;2.30;;
7193;SDS011;3638;48.820;9.244;2023-04-25T00:03:49;3.97;;;2.30;;
7193;SDS011;3638;48.820;9.244;2023-04-25T00:06:16;2.80;;;2.40;;
7193;SDS011;3638;48.820;9.244;2023-04-25T00:08:43;2.57;;;2.47;;
7193;SDS011;3638;48.820;9.244;2023-04-25T00:11:10;2.70;;;2.50;;
7193;SDS011;3638;48.820;9.244;2023-04-25T00:13:37;2.50;;;2.30;;
7193;SDS011;3638;48.820;9.244;2023-04-25T00:16:06;2.87;;;2.67;;
7193;SDS011;3638;48.820;9.244;2023-04-25T00:18:33;2.63;;;2.43;;
7193;SDS011;3638;48.820;9.244;2023-04-25T00:21:01;3.07;;;2.50;;
7193;SDS011;3638;48.820;9.244;2023-04-25T00:23:31;3.07;;;2.53;;
7193;SDS011;3638;48.820;9.244;2023-04-25T00:25:58;2.40;;;2.20;;
7193;SDS011;3638;48.820;9.244;2023-04-25T00:28:24;2.80;;;2.60;;
7193;SDS011;3638;48.820;9.244;2023-04-25T00:30:51;2.50;;;2.30;;
7193;SDS011;3638;48.820;9.244;2023-04-25T00:33:18;2.80;;;2.60;;
7193;SDS011;3638;48.820;9.244;2023-04-25T00:35:47;2.83;;;2.63;;
7193;SDS011;3638;48.820;9.244;2023-04-25T00:38:15;2.70;;;2.50;;
7193;SDS011;3638;48.820;9.244;2023-04-25T00:40:42;2.90;;;2.40;;
7193;SDS011;3638;48.820;9.244;2023-04-25T00:43:09;2.80;;;2.60;;
7193;SDS011;3638;48.820;9.244;2023-04-25T00:45:37;2.53;;;2.33;;
7193;SDS011;3638;48.820;9.244;2023-04-25T00:48:05;2.57;;;2.37;;
7193;SDS011;3638;48.820;9.244;2023-04-25T00:50:32;3.83;;;2.67;;
7193;SDS011;3638;48.820;9.244;2023-04-25T00:53:00;2.77;;;2.50;;
7193;SDS011;3638;48.820;9.244;2023-04-25T00:55:29;2.43;;;2.33;;
7193;SDS011;3638;48.820;9.244;2023-04-25T00:57:57;2.60;;;2.40;;
7193;SDS011;3638;48.820;9.244;2023-04-25T01:00:24;2.67;;;2.47;;
7193;SDS011;3638;48.820;9.244;2023-04-25T01:02:51;3.33;;;2.77;;
7193;SDS011;3638;48.820;9.244;2023-04-25T01:05:18;2.63;;;2.43;;
7193;SDS011;3638;48.820;9.244;2023-04-25T01:07:46;2.70;;;2.50;;
7193;SDS011;3638;48.820;9.244;2023-04-25T01:10:13;2.60;;;2.40;;
7193;SDS011;3638;48.820;9.244;2023-04-25T01:12:41;3.20;;;2.60;;
7193;SDS011;3638;48.820;9.244;2023-04-25T01:15:09;2.77;;;2.57;;
7193;SDS011;3638;48.820;9.244;2023-04-25T01:17:36;2.73;;;2.53;;
7193;SDS011;3638;48.820;9.244;2023-04-25T01:20:04;2.63;;;2.43;;
7193;SDS011;3638;48.820;9.244;2023-04-25T01:22:35;2.90;;;2.70;;
7193;SDS011;3638;48.820;9.244;2023-04-25T01:25:03;4.23;;;3.23;;
7193;SDS011;3638;48.820;9.244;2023-04-25T01:27:31;2.80;;;2.60;;
7193;SDS011;3638;48.820;9.244;2023-04-25T01:29:58;3.00;;;2.80;;
7193;SDS011;3638;48.820;9.244;2023-04-25T01:32:26;3.17;;;2.63;;
7193;SDS011;3638;48.820;9.244;2023-04-25T01:34:53;4.10;;;2.47;;
7193;SDS011;3638;48.820;9.244;2023-04-25T01:37:20;3.03;;;2.73;;
7193;SDS011;3638;48.820;9.244;2023-04-25T01:39:48;3.83;;;2.87;;
7193;SDS011;3638;48.820;9.244;2023-04-25T01:42:15;3.60;;;2.63;;
7193;SDS011;3638;48.820;9.244;2023-04-25T01:44:42;2.73;;;2.53;;
7193;SDS011;3638;48.820;9.244;2023-04-25T01:47:09;2.80;;;2.60;;
7193;SDS011;3638;48.820;9.244;2023-04-25T01:49:36;2.93;;;2.63;;
7193;SDS011;3638;48.820;9.244;2023-04-25T01:52:03;3.80;;;3.20;;
7193;SDS011;3638;48.820;9.244;2023-04-25T01:54:30;3.27;;;2.90;;
7193;SDS011;3638;48.820;9.244;2023-04-25T01:56:58;2.73;;;2.53;;
7193;SDS011;3638;48.820;9.244;2023-04-25T01:59:25;2.93;;;2.73;;
7193;SDS011;3638;48.820;9.244;2023-04-25T02:01:52;3.40;;;2.70;;
7193;SDS011;3638;48.820;9.244;2023-04-25T02:04:19;2.70;;;2.50;;
7193;SDS011;3638;48.820;9.244;2023-04-25T02:06:45;2.90;;;2.70;;
7193;SDS011;3638;48.820;9.244;2023-04-25T02:09:12;3.20;;;2.90;;
7193;SDS011;3638;48.820;9.244;2023-04-25T02:11:39;4.13;;;3.00;;
7193;SDS011;3638;48.820;9.244;2023-04-25T02:14:07;5.20;;;3.00;;
7193;SDS011;3638;48.820;9.244;2023-04-25T02:16:34;3.03;;;2.63;;
7193;SDS011;3638;48.820;9.244;2023-04-25T02:19:02;3.63;;;2.63;;
7193;SDS011;3638;48.820;9.244;2023-04-25T02:21:29;2.97;;;2.77;;
7193;SDS011;3638;48.820;9.244;2023-04-25T02:23:57;3.20;;;2.90;;
7193;SDS011;3638;48.820;9.244;2023-04-25T02:26:24;3.37;;;2.87;;
7193;SDS011;3638;48.820;9.244;2023-04-25T02:28:51;3.60;;;2.70;;
7193;SDS011;3638;48.820;9.244;2023-04-25T02:31:20;2.80;;;2.60;;
7193;SDS011;3638;48.820;9.244;2023-04-25T02:33:47;3.00;;;2.63;;
7193;SDS011;3638;48.820;9.244;2023-04-25T02:36:14;2.93;;;2.63;;
7193;SDS011;3638;48.820;9.244;2023-04-25T02:38:41;3.10;;;2.80;;
7193;SDS011;3638;48.820;9.244;2023-04-25T02:41:07;3.00;;;2.80;;
7193;SDS011;3638;48.820;9.244;2023-04-25T02:43:34;3.50;;;3.20;;
7193;SDS011;3638;48.820;9.244;2023-04-25T02:46:01;3.23;;;2.90;;
7193;SDS011;3638;48.820;9.244;2023-04-25T02:48:30;4.97;;;3.20;;
7193;SDS011;3638;48.820;9.244;2023-04-25T02:50:57;3.17;;;2.87;;
7193;SDS011;3638;48.820;9.244;2023-04-25T02:53:24;3.13;;;2.83;;
7193;SDS011;3638;48.820;9.244;2023-04-25T02:55:51;3.27;;;2.97;;
7193;SDS011;3638;48.820;9.244;2023-04-25T02:58:18;3.00;;;2.70;;
7193;SDS011;3638;48.820;9.244;2023-04-25T03:00:45;3.13;;;2.60;;
7193;SDS011;3638;48.820;9.244;2023-04-25T03:03:12;3.10;;;2.80;;
7193;SDS011;3638;48.820;9.244;2023-04-25T03:05:41;2.87;;;2.67;;
7193;SDS011;3638;48.820;9.244;2023-04-25T03:08:07;3.20;;;2.90;;
7193;SDS011;3638;48.820;9.244;2023-04-25T03:10:34;2.97;;;2.70;;
7193;SDS011;3638;48.820;9.244;2023-04-25T03:13:01;6.23;;;3.10;;
7193;SDS011;3638;48.820;9.244;2023-04-25T03:15:29;4.33;;;3.20;;
7193;SDS011;3638;48.820;9.244;2023-04-25T03:17:56;5.83;;;3.10;;
7193;SDS011;3638;48.820;9.244;2023-04-25T03:20:23;4.40;;;3.07;;
7193;SDS011;3638;48.820;9.244;2023-04-25T03:22:51;3.33;;;2.63;;
7193;SDS011;3638;48.820;9.244;2023-04-25T03:25:18;2.53;;;2.37;;
7193;SDS011;3638;48.820;9.244;2023-04-25T03:27:45;3.10;;;2.80;;
7193;SDS011;3638;48.820;9.244;2023-04-25T03:30:12;2.70;;;2.50;;
7193;SDS011;3638;48.820;9.244;2023-04-25T03:32:39;3.90;;;3.10;;
7193;SDS011;3638;48.820;9.244;2023-04-25T03:35:06;3.17;;;2.97;;
7193;SDS011;3638;48.820;9.244;2023-04-25T03:37:33;3.50;;;3.20;;
7193;SDS011;3638;48.820;9.244;2023-04-25T03:40:02;3.37;;;3.07;;
7193;SDS011;3638;48.820;9.244;2023-04-25T03:42:30;3.97;;;3.17;;
7193;SDS011;3638;48.820;9.244;2023-04-25T03:44:56;3.83;;;3.20;;
7193;SDS011;3638;48.820;9.244;2023-04-25T03:47:23;3.80;;;3.17;;
7193;SDS011;3638;48.820;9.244;2023-04-25T03:49:50;3.27;;;2.87;;
7193;SDS011;3638;48.820;9.244;2023-04-25T03:52:17;8.17;;;5.57;;
7193;SDS011;3638;48.820;9.244;2023-04-25T03:54:44;4.07;;;3.60;;
7193;SDS011;3638;48.820;9.244;2023-04-25T03:57:12;3.87;;;3.50;;
7193;SDS011;3638;48.820;9.244;2023-04-25T03:59:39;3.60;;;3.30;;
7193;SDS011;3638;48.820;9.244;2023-04-25T04:02:06;3.60;;;3.30;;
7193;SDS011;3638;48.820;9.244;2023-04-25T04:04:33;3.57;;;3.27;;
7193;SDS011;3638;48.820;9.244;2023-04-25T04:07:00;3.60;;;3.30;;
7193;SDS011;3638;48.820;9.244;2023-04-25T04:09:27;3.60;;;3.30;;
7193;SDS011;3638;48.820;9.244;2023-04-25T04:11:54;3.80;;;3.50;;
7193;SDS011;3638;48.820;9.244;2023-04-25T04:14:22;3.47;;;3.17;;
7193;SDS011;3638;48.820;9.244;2023-04-25T04:16:48;4.00;;;3.60;;
7193;SDS011;3638;48.820;9.244;2023-04-25T04:19:17;3.83;;;3.30;;
7193;SDS011;3638;48.820;9.244;2023-04-25T04:21:44;5.43;;;3.70;;
7193;SDS011;3638;48.820;9.244;2023-04-25T04:24:11;3.10;;;2.90;;
7193;SDS011;3638;48.820;9.244;2023-04-25T04:26:37;3.60;;;3.30;;
7193;SDS011;3638;48.820;9.244;2023-04-25T04:29:04;4.43;;;3.20;;
7193;SDS011;3638;48.820;9.244;2023-04-25T04:31:33;4.40;;;3.43;;
7193;SDS011;3638;48.820;9.244;2023-04-25T04:34:00;3.73;;;3.40;;
7193;SDS011;3638;48.820;9.244;2023-04-25T04:36:28;3.27;;;2.97;;
7193;SDS011;3638;48.820;9.244;2023-04-25T04:38:55;4.23;;;3.07;;
7193;SDS011;3638;48.820;9.244;2023-04-25T04:41:23;3.53;;;3.23;;
7193;SDS011;3638;48.820;9.244;2023-04-25T04:43:50;4.43;;;3.40;;
7193;SDS011;3638;48.820;9.244;2023-04-25T04:46:18;3.40;;;3.10;;
7193;SDS011;3638;48.820;9.244;2023-04-25T04:48:46;3.83;;;3.20;;
7193;SDS011;3638;48.820;9.244;2023-04-25T04:51:13;4.63;;;3.53;;
7193;SDS011;3638;48.820;9.244;2023-04-25T04:53:40;3.60;;;3.20;;
7193;SDS011;3638;48.820;9.244;2023-04-25T04:56:07;4.80;;;3.70;;
7193;SDS011;3638;48.820;9.244;2023-04-25T04:58:34;3.43;;;3.13;;
7193;SDS011;3638;48.820;9.244;2023-04-25T05:01:02;3.83;;;3.23;;
7193;SDS011;3638;48.820;9.244;2023-04-25T05:03:29;4.03;;;3.63;;
7193;SDS011;3638;48.820;9.244;2023-04-25T05:05:57;4.53;;;3.50;;
7193;SDS011;3638;48.820;9.244;2023-04-25T05:08:24;5.30;;;3.93;;
7193;SDS011;3638;48.820;9.244;2023-04-25T05:10:51;5.40;;;3.60;;
7193;SDS011;3638;48.820;9.244;2023-04-25T05:13:18;4.50;;;3.47;;
7193;SDS011;3638;48.820;9.244;2023-04-25T05:15:45;4.57;;;3.50;;
7193;SDS011;3638;48.820;9.244;2023-04-25T05:18:12;4.93;;;3.97;;
7193;SDS011;3638;48.820;9.244;2023-04-25T05:20:39;4.27;;;3.57;;
7193;SDS011;3638;48.820;9.244;2023-04-25T05:23:07;3.87;;;3.53;;
7193;SDS011;3638;48.820;9.244;2023-04-25T05:25:34;4.40;;;3.60;;
7193;SDS011;3638;48.820;9.244;2023-04-25T05:28:00;3.60;;;3.30;;
7193;SDS011;3638;48.820;9.244;2023-04-25T05:30:27;4.17;;;3.73;;
7193;SDS011;3638;48.820;9.244;2023-04-25T05:32:54;6.13;;;3.80;;
7193;SDS011;3638;48.820;9.244;2023-04-25T05:35:21;7.03;;;4.27;;
7193;SDS011;3638;48.820;9.244;2023-04-25T05:37:48;5.60;;;3.90;;
7193;SDS011;3638;48.820;9.244;2023-04-25T05:40:16;4.23;;;3.83;;
7193;SDS011;3638;48.820;9.244;2023-04-25T05:42:43;5.07;;;4.00;;
7193;SDS011;3638;48.820;9.244;2023-04-25T05:45:11;5.43;;;4.40;;
7193;SDS011;3638;48.820;9.244;2023-04-25T05:47:37;4.47;;;4.10;;
7193;SDS011;3638;48.820;9.244;2023-04-25T05:50:05;4.93;;;4.43;;
7193;SDS011;3638;48.820;9.244;2023-04-25T05:52:33;5.30;;;4.67;;
7193;SDS011;3638;48.820;9.244;2023-04-25T05:55:00;5.13;;;4.40;;
7193;SDS011;3638;48.820;9.244;2023-04-25T05:57:29;5.50;;;4.73;;
7193;SDS011;3638;48.820;9.244;2023-04-25T05:59:56;4.70;;;4.30;;
7193;SDS011;3638;48.820;9.244;2023-04-25T06:02:22;6.20;;;5.33;;
7193;SDS011;3638;48.820;9.244;2023-04-25T06:04:50;6.53;;;4.93;;
7193;SDS011;3638;48.820;9.244;2023-04-25T06:07:17;6.37;;;4.83;;
7193;SDS011;3638;48.820;9.244;2023-04-25T06:09:44;5.57;;;5.07;;
7193;SDS011;3638;48.820;9.244;2023-04-25T06:12:11;6.20;;;4.47;;
7193;SDS011;3638;48.820;9.244;2023-04-25T06:14:40;4.50;;;4.10;;
7193;SDS011;3638;48.820;9.244;2023-04-25T06:17:07;4.87;;;4.20;;
7193;SDS011;3638;48.820;9.244;2023-04-25T06:19:34;5.73;;;4.43;;
7193;SDS011;3638;48.820;9.244;2023-04-25T06:22:02;4.70;;;4.27;;
7193;SDS011;3638;48.820;9.244;2023-04-25T06:24:29;4.50;;;4.10;;
7193;SDS011;3638;48.820;9.244;2023-04-25T06:26:55;4.50;;;4.10;;
7193;SDS011;3638;48.820;9.244;2023-04-25T06:29:22;4.47;;;4.03;;
7193;SDS011;3638;48.820;9.244;2023-04-25T06:31:50;4.63;;;4.23;;
7193;SDS011;3638;48.820;9.244;2023-04-25T06:34:17;4.93;;;4.30;;
7193;SDS011;3638;48.820;9.244;2023-04-25T06:36:44;4.40;;;4.00;;
7193;SDS011;3638;48.820;9.244;2023-04-25T06:39:11;4.90;;;4.50;;
7193;SDS011;3638;48.820;9.244;2023-04-25T06:41:38;4.73;;;4.00;;
7193;SDS011;3638;48.820;9.244;2023-04-25T06:44:04;4.53;;;3.80;;
7193;SDS011;3638;48.820;9.244;2023-04-25T06:46:31;5.07;;;3.90;;
7193;SDS011;3638;48.820;9.244;2023-04-25T06:49:00;5.60;;;4.00;;
7193;SDS011;3638;48.820;9.244;2023-04-25T06:51:26;4.33;;;3.63;;
7193;SDS011;3638;48.820;9.244;2023-04-25T06:53:55;4.73;;;4.23;;
7193;SDS011;3638;48.820;9.244;2023-04-25T06:56:22;4.63;;;4.23;;
7193;SDS011;3638;48.820;9.244;2023-04-25T06:58:49;4.30;;;3.80;;
7193;SDS011;3638;48.820;9.244;2023-04-25T07:01:16;4.53;;;4.13;;
7193;SDS011;3638;48.820;9.244;2023-04-25T07:03:43;6.73;;;4.53;;
7193;SDS011;3638;48.820;9.244;2023-04-25T07:06:11;5.83;;;3.93;;
7193;SDS011;3638;48.820;9.244;2023-04-25T07:08:38;4.30;;;3.90;;
7193;SDS011;3638;48.820;9.244;2023-04-25T07:11:05;4.03;;;3.73;;
7193;SDS011;3638;48.820;9.244;2023-04-25T07:13:32;4.50;;;4.10;;
7193;SDS011;3638;48.820;9.244;2023-04-25T07:15:58;4.47;;;4.07;;
7193;SDS011;3638;48.820;9.244;2023-04-25T07:18:26;4.40;;;4.00;;
7193;SDS011;3638;48.820;9.244;2023-04-25T07:20:52;4.37;;;3.97;;
7193;SDS011;3638;48.820;9.244;2023-04-25T07:23:20;5.20;;;4.30;;
7193;SDS011;3638;48.820;9.244;2023-04-25T07:25:47;4.43;;;4.03;;
7193;SDS011;3638;48.820;9.244;2023-04-25T07:28:15;5.57;;;4.57;;
7193;SDS011;3638;48.820;9.244;2023-04-25T07:30:41;4.73;;;4.27;;
7193;SDS011;3638;48.820;9.244;2023-04-25T07:33:08;4.47;;;4.07;;
7193;SDS011;3638;48.820;9.244;2023-04-25T07:35:35;4.93;;;4.53;;
7193;SDS011;3638;48.820;9.244;2023-04-25T07:38:02;5.40;;;4.90;;
7193;SDS011;3638;48.820;9.244;2023-04-25T07:40:32;5.30;;;4.80;;
7193;SDS011;3638;48.820;9.244;2023-04-25T07:43:00;5.40;;;4.97;;
7193;SDS011;3638;48.820;9.244;2023-04-25T07:45:27;4.90;;;4.50;;
7193;SDS011;3638;48.820;9.244;2023-04-25T07:47:54;4.97;;;4.57;;
7193;SDS011;3638;48.820;9.244;2023-04-25T07:50:21;6.97;;;6.27;;
7193;SDS011;3638;48.820;9.244;2023-04-25T07:52:48;6.70;;;5.20;;
7193;SDS011;3638;48.820;9.244;2023-04-25T07:55:15;5.33;;;4.83;;
7193;SDS011;3638;48.820;9.244;2023-04-25T07:57:44;5.70;;;5.20;;
7193;SDS011;3638;48.820;9.244;2023-04-25T08:00:11;6.10;;;5.50;;
7193;SDS011;3638;48.820;9.244;2023-04-25T08:02:40;5.67;;;5.13;;
7193;SDS011;3638;48.820;9.244;2023-04-25T08:05:07;10.37;;;5.70;;
7193;SDS011;3638;48.820;9.244;2023-04-25T08:07:36;5.77;;;5.27;;
7193;SDS011;3638;48.820;9.244;2023-04-25T08:10:04;6.87;;;5.90;;
7193;SDS011;3638;48.820;9.244;2023-04-25T08:12:32;6.50;;;5.80;;
7193;SDS011;3638;48.820;9.244;2023-04-25T08:15:00;6.20;;;5.70;;
7193;SDS011;3638;48.820;9.244;2023-04-25T08:17:27;7.17;;;6.20;;
7193;SDS011;3638;48.820;9.244;2023-04-25T08:19:54;7.97;;;6.23;;
7193;SDS011;3638;48.820;9.244;2023-04-25T08:22:22;8.97;;;6.40;;
7193;SDS011;3638;48.820;9.244;2023-04-25T08:24:48;7.63;;;6.83;;
7193;SDS011;3638;48.820;9.244;2023-04-25T08:27:16;7.70;;;6.90;;
7193;SDS011;3638;48.820;9.244;2023-04-25T08:29:43;6.90;;;5.90;;
7193;SDS011;3638;48.820;9.244;2023-04-25T08:32:12;7.30;;;6.60;;
7193;SDS011;3638;48.820;9.244;2023-04-25T08:34:39;7.07;;;6.43;;
7193;SDS011;3638;48.820;9.244;2023-04-25T08:37:07;7.63;;;6.83;;
7193;SDS011;3638;48.820;9.244;2023-04-25T08:39:34;7.17;;;6.53;;
7193;SDS011;3638;48.820;9.244;2023-04-25T08:42:01;6.93;;;6.27;;
7193;SDS011;3638;48.820;9.244;2023-04-25T08:44:32;7.03;;;6.43;;
7193;SDS011;3638;48.820;9.244;2023-04-25T08:47:01;7.70;;;6.87;;
7193;SDS011;3638;48.820;9.244;2023-04-25T08:49:31;7.67;;;6.33;;
7193;SDS011;3638;48.820;9.244;2023-04-25T08:51:59;7.57;;;6.70;;
7193;SDS011;3638;48.820;9.244;2023-04-25T08:54:29;7.80;;;6.80;;
7193;SDS011;3638;48.820;9.244;2023-04-25T08:56:57;7.77;;;6.97;;
7193;SDS011;3638;48.820;9.244;2023-04-25T08:59:29;7.30;;;6.60;;
7193;SDS011;3638;48.820;9.244;2023-04-25T09:01:56;6.43;;;5.93;;
7193;SDS011;3638;48.820;9.244;2023-04-25T09:04:24;7.60;;;6.90;;
7193;SDS011;3638;48.820;9.244;2023-04-25T09:06:52;7.60;;;6.40;;
7193;SDS011;3638;48.820;9.244;2023-04-25T09:09:19;8.40;;;5.93;;
7193;SDS011;3638;48.820;9.244;2023-04-25T09:11:46;6.67;;;6.07;;
7193;SDS011;3638;48.820;9.244;2023-04-25T09:14:13;7.63;;;6.83;;
7193;SDS011;3638;48.820;9.244;2023-04-25T09:16:56;6.73;;;6.13;;
7193;SDS011;3638;48.820;9.244;2023-04-25T09:19:33;7.10;;;6.03;;
7193;SDS011;3638;48.820;9.244;2023-04-25T09:22:06;6.90;;;6.20;;
7193;SDS011;3638;48.820;9.244;2023-04-25T09:24:35;9.17;;;6.93;;
7193;SDS011;3638;48.820;9.244;2023-04-25T09:27:04;8.20;;;6.90;;
7193;SDS011;3638;48.820;9.244;2023-04-25T09:29:32;9.30;;;7.57;;
7193;SDS011;3638;48.820;9.244;2023-04-25T09:32:18;8.23;;;7.40;;
7193;SDS011;3638;48.820;9.244;2023-04-25T09:34:47;7.63;;;6.87;;
7193;SDS011;3638;48.820;9.244;2023-04-25T09:37:21;8.07;;;7.33;;
7193;SDS011;3638;48.820;9.244;2023-04-25T09:39:50;6.40;;;5.87;;
7193;SDS011;3638;48.820;9.244;2023-04-25T09:42:21;6.43;;;5.80;;
7193;SDS011;3638;48.820;9.244;2023-04-25T09:44:50;6.37;;;5.70;;
7193;SDS011;3638;48.820;9.244;2023-04-25T09:47:19;6.00;;;5.40;;
7193;SDS011;3638;48.820;9.244;2023-04-25T09:49:48;5.87;;;5.27;;
7193;SDS011;3638;48.820;9.244;2023-04-25T09:52:16;5.53;;;5.03;;
7193;SDS011;3638;48.820;9.244;2023-04-25T09:54:46;6.17;;;5.67;;
7193;SDS011;3638;48.820;9.244;2023-04-25T09:57:14;5.63;;;5.13;;
7193;SDS011;3638;48.820;9.244;2023-04-25T09:59:44;5.63;;;5.00;;
7193;SDS011;3638;48.820;9.244;2023-04-25T10:02:13;5.50;;;5.00;;
7193;SDS011;3638;48.820;9.244;2023-04-25T10:04:41;5.50;;;5.03;;
7193;SDS011;3638;48.820;9.244;2023-04-25T10:07:14;4.77;;;4.30;;
7193;SDS011;3638;48.820;9.244;2023-04-25T10:09:41;5.83;;;4.90;;
7193;SDS011;3638;48.820;9.244;2023-04-25T10:12:11;4.90;;;4.50;;
7193;SDS011;3638;48.820;9.244;2023-04-25T10:14:39;5.10;;;4.70;;
7193;SDS011;3638;48.820;9.244;2023-04-25T10:17:06;5.13;;;4.70;;
7193;SDS011;3638;48.820;9.244;2023-04-25T10:19:36;4.63;;;4.23;;
7193;SDS011;3638;48.820;9.244;2023-04-25T10:22:05;5.60;;;5.00;;
7193;SDS011;3638;48.820;9.244;2023-04-25T10:24:35;5.53;;;4.97;;
7193;SDS011;3638;48.820;9.244;2023-04-25T10:27:02;5.73;;;5.23;;
7193;SDS011;3638;48.820;9.244;2023-04-25T10:29:31;5.77;;;5.27;;
7193;SDS011;3638;48.820;9.244;2023-04-25T10:31:58;6.27;;;5.70;;
7193;SDS011;3638;48.820;9.244;2023-04-25T10:34:37;6.57;;;5.97;;
7193;SDS011;3638;48.820;9.244;2023-04-25T10:37:05;6.03;;;5.43;;
7193;SDS011;3638;48.820;9.244;2023-04-25T10:39:35;5.37;;;4.87;;
7193;SDS011;3638;48.820;9.244;2023-04-25T10:42:05;5.40;;;4.90;;
7193;SDS011;3638;48.820;9.244;2023-04-25T10:44:34;4.83;;;4.43;;
7193;SDS011;3638;48.820;9.244;2023-04-25T10:47:03;5.10;;;4.60;;
7193;SDS011;3638;48.820;9.244;2023-04-25T10:49:33;5.27;;;4.67;;
7193;SDS011;3638;48.820;9.244;2023-04-25T10:52:15;6.57;;;5.90;;
7193;SDS011;3638;48.820;9.244;2023-04-25T10:54:48;6.43;;;5.83;;
7193;SDS011;3638;48.820;9.244;2023-04-25T10:57:27;6.67;;;5.93;;
7193;SDS011;3638;48.820;9.244;2023-04-25T11:00:07;6.37;;;5.70;;
7193;SDS011;3638;48.820;9.244;2023-04-25T11:02:44;6.30;;;5.70;;
7193;SDS011;3638;48.820;9.244;2023-04-25T11:05:20;6.23;;;5.63;;
7193;SDS011;3638;48.820;9.244;2023-04-25T11:07:50;6.20;;;5.23;;
7193;SDS011;3638;48.820;9.244;2023-04-25T11:10:19;5.33;;;4.90;;
7193;SDS011;3638;48.820;9.244;2023-04-25T11:12:51;5.67;;;5.10;;
7193;SDS011;3638;48.820;9.244;2023-04-25T11:15:19;5.53;;;5.03;;
7193;SDS011;3638;48.820;9.244;2023-04-25T11:17:46;4.90;;;4.40;;
7193;SDS011;3638;48.820;9.244;2023-04-25T11:20:13;5.10;;;4.57;;
7193;SDS011;3638;48.820;9.244;2023-04-25T11:22:40;9.03;;;5.10;;
7193;SDS011;3638;48.820;9.244;2023-04-25T11:25:11;5.90;;;4.53;;
7193;SDS011;3638;48.820;9.244;2023-04-25T11:27:49;4.37;;;4.00;;
7193;SDS011;3638;48.820;9.244;2023-04-25T11:30:16;3.97;;;3.67;;
7193;SDS011;3638;48.820;9.244;2023-04-25T11:32:46;4.77;;;4.00;;
7193;SDS011;3638;48.820;9.244;2023-04-25T11:35:13;4.17;;;3.87;;
7193;SDS011;3638;48.820;9.244;2023-04-25T11:37:41;4.43;;;4.03;;
7193;SDS011;3638;48.820;9.244;2023-04-25T11:40:10;4.00;;;3.70;;
7193;SDS011;3638;48.820;9.244;2023-04-25T11:42:37;4.73;;;4.13;;
7193;SDS011;3638;48.820;9.244;2023-04-25T11:45:06;4.00;;;3.70;;
7193;SDS011;3638;48.820;9.244;2023-04-25T11:47:36;9.03;;;7.63;;
7193;SDS011;3638;48.820;9.244;2023-04-25T11:50:04;8.03;;;6.57;;
7193;SDS011;3638;48.820;9.244;2023-04-25T11:52:36;5.30;;;4.80;;
7193;SDS011;3638;48.820;9.244;2023-04-25T11:55:05;14.17;;;10.20;;
7193;SDS011;3638;48.820;9.244;2023-04-25T11:57:34;13.70;;;9.53;;
7193;SDS011;3638;48.820;9.244;2023-04-25T12:00:05;6.70;;;6.00;;
7193;SDS011;3638;48.820;9.244;2023-04-25T12:02:37;6.90;;;5.73;;
7193;SDS011;3638;48.820;9.244;2023-04-25T12:05:07;5.30;;;4.80;;
7193;SDS011;3638;48.820;9.244;2023-04-25T12:07:35;4.07;;;3.77;;
7193;SDS011;3638;48.820;9.244;2023-04-25T12:10:06;7.20;;;6.10;;
7193;SDS011;3638;48.820;9.244;2023-04-25T12:12:34;4.07;;;3.70;;
7193;SDS011;3638;48.820;9.244;2023-04-25T12:15:09;5.50;;;5.00;;
7193;SDS011;3638;48.820;9.244;2023-04-25T12:17:41;7.23;;;4.83;;
7193;SDS011;3638;48.820;9.244;2023-04-25T12:20:11;5.10;;;4.43;;
7193;SDS011;3638;48.820;9.244;2023-04-25T12:22:40;6.63;;;5.77;;
7193;SDS011;3638;48.820;9.244;2023-04-25T12:25:10;9.47;;;7.73;;
7193;SDS011;3638;48.820;9.244;2023-04-25T12:27:38;31.43;;;20.40;;
7193;SDS011;3638;48.820;9.244;2023-04-25T12:30:08;7.67;;;6.30;;
7193;SDS011;3638;48.820;9.244;2023-04-25T12:32:36;9.50;;;7.10;;
7193;SDS011;3638;48.820;9.244;2023-04-25T12:35:05;7.13;;;6.10;;
7193;SDS011;3638;48.820;9.244;2023-04-25T12:37:33;10.10;;;6.70;;
7193;SDS011;3638;48.820;9.244;2023-04-25T12:40:00;7.63;;;6.93;;
7193;SDS011;3638;48.820;9.244;2023-04-25T12:42:29;9.20;;;8.30;;
7193;SDS011;3638;48.820;9.244;2023-04-25T12:44:56;9.47;;;8.30;;
7193;SDS011;3638;48.820;9.244;2023-04-25T12:47:22;16.80;;;13.83;;
7193;SDS011;3638;48.820;9.244;2023-04-25T12:49:49;7.90;;;7.10;;
7193;SDS011;3638;48.820;9.244;2023-04-25T12:52:17;6.93;;;6.27;;
7193;SDS011;3638;48.820;9.244;2023-04-25T12:54:44;7.63;;;6.53;;
7193;SDS011;3638;48.820;9.244;2023-04-25T12:57:11;8.47;;;7.53;;
7193;SDS011;3638;48.820;9.244;2023-04-25T12:59:38;14.13;;;11.30;;
7193;SDS011;3638;48.820;9.244;2023-04-25T13:02:05;12.47;;;8.83;;
7193;SDS011;3638;48.820;9.244;2023-04-25T13:04:32;11.50;;;9.80;;
7193;SDS011;3638;48.820;9.244;2023-04-25T13:06:58;8.10;;;7.17;;
7193;SDS011;3638;48.820;9.244;2023-04-25T13:09:27;10.63;;;7.03;;
7193;SDS011;3638;48.820;9.244;2023-04-25T13:11:54;8.50;;;7.50;;
7193;SDS011;3638;48.820;9.244;2023-04-25T13:14:20;10.47;;;8.73;;
7193;SDS011;3638;48.820;9.244;2023-04-25T13:16:47;9.63;;;7.07;;
7193;SDS011;3638;48.820;9.244;2023-04-25T13:19:14;7.60;;;6.80;;
7193;SDS011;3638;48.820;9.244;2023-04-25T13:21:41;8.00;;;6.90;;
7193;SDS011;3638;48.820;9.244;2023-04-25T13:24:08;10.50;;;8.70;;
7193;SDS011;3638;48.820;9.244;2023-04-25T13:26:36;7.50;;;6.60;;
7193;SDS011;3638;48.820;9.244;2023-04-25T13:29:03;9.20;;;8.13;;
7193;SDS011;3638;48.820;9.244;2023-04-25T13:31:31;10.00;;;7.50;;
7193;SDS011;3638;48.820;9.244;2023-04-25T13:33:57;17.57;;;12.97;;
7193;SDS011;3638;48.820;9.244;2023-04-25T13:36:24;10.10;;;8.77;;
7193;SDS011;3638;48.820;9.244;2023-04-25T13:38:52;11.70;;;8.40;;
7193;SDS011;3638;48.820;9.244;2023-04-25T13:41:19;14.30;;;9.30;;
7193;SDS011;3638;48.820;9.244;2023-04-25T13:43:47;10.53;;;7.87;;
7193;SDS011;3638;48.820;9.244;2023-04-25T13:46:14;8.40;;;7.10;;
7193;SDS011;3638;48.820;9.244;2023-04-25T13:48:45;9.03;;;7.53;;
7193;SDS011;3638;48.820;9.244;2023-04-25T13:51:14;9.93;;;8.17;;
7193;SDS011;3638;48.820;9.244;2023-04-25T13:53:42;12.20;;;9.07;;
7193;SDS011;3638;48.820;9.244;2023-04-25T13:56:10;9.30;;;8.00;;
7193;SDS011;3638;48.820;9.244;2023-04-25T13:58:37;10.07;;;9.07;;
7193;SDS011;3638;48.820;9.244;2023-04-25T14:01:05;11.77;;;9.00;;
7193;SDS011;3638;48.820;9.244;2023-04-25T14:03:32;10.30;;;8.67;;
7193;SDS011;3638;48.820;9.244;2023-04-25T14:05:59;10.73;;;9.40;;
7193;SDS011;3638;48.820;9.244;2023-04-25T14:08:26;10.60;;;9.23;;
7193;SDS011;3638;48.820;9.244;2023-04-25T14:10:53;10.53;;;8.33;;
7193;SDS011;3638;48.820;9.244;2023-04-25T14:13:20;11.40;;;9.03;;
7193;SDS011;3638;48.820;9.244;2023-04-25T14:15:48;11.97;;;8.73;;
7193;SDS011;3638;48.820;9.244;2023-04-25T14:18:17;11.60;;;8.80;;
7193;SDS011;3638;48.820;9.244;2023-04-25T14:20:44;10.45;;;7.75;;
7193;SDS011;3638;48.820;9.244;2023-04-25T14:23:11;9.20;;;6.87;;
7193;SDS011;3638;48.820;9.244;2023-04-25T14:25:38;8.30;;;7.10;;
7193;SDS011;3638;48.820;9.244;2023-04-25T14:28:06;9.40;;;6.93;;
7193;SDS011;3638;48.820;9.244;2023-04-25T14:30:34;8.77;;;7.20;;
7193;SDS011;3638;48.820;9.244;2023-04-25T14:33:00;9.60;;;7.30;;
7193;SDS011;3638;48.820;9.244;2023-04-25T14:35:29;8.83;;;7.20;;
7193;SDS011;3638;48.820;9.244;2023-04-25T14:37:55;9.77;;;7.37;;
7193;SDS011;3638;48.820;9.244;2023-04-25T14:40:22;7.07;;;6.37;;
7193;SDS011;3638;48.820;9.244;2023-04-25T14:42:50;8.90;;;6.70;;
7193;SDS011;3638;48.820;9.244;2023-04-25T14:45:17;8.13;;;7.30;;
7193;SDS011;3638;48.820;9.244;2023-04-25T14:47:44;7.13;;;6.20;;
7193;SDS011;3638;48.820;9.244;2023-04-25T14:50:11;7.50;;;6.67;;
7193;SDS011;3638;48.820;9.244;2023-04-25T14:52:39;7.50;;;6.13;;
7193;SDS011;3638;48.820;9.244;2023-04-25T14:55:06;6.63;;;6.03;;
7193;SDS011;3638;48.820;9.244;2023-04-25T14:57:34;7.53;;;6.43;;
7193;SDS011;3638;48.820;9.244;2023-04-25T15:00:01;6.90;;;6.20;;
7193;SDS011;3638;48.820;9.244;2023-04-25T15:02:30;9.13;;;6.47;;
7193;SDS011;3638;48.820;9.244;2023-04-25T15:04:57;6.73;;;6.03;;
7193;SDS011;3638;48.820;9.244;2023-04-25T15:07:24;7.60;;;6.80;;
7193;SDS011;3638;48.820;9.244;2023-04-25T15:09:53;6.93;;;5.90;;
7193;SDS011;3638;48.820;9.244;2023-04-25T15:12:21;7.67;;;6.47;;
7193;SDS011;3638;48.820;9.244;2023-04-25T15:14:48;7.53;;;6.63;;
7193;SDS011;3638;48.820;9.244;2023-04-25T15:17:15;7.43;;;5.90;;
7193;SDS011;3638;48.820;9.244;2023-04-25T15:19:41;7.00;;;5.90;;